createdAt,value
2019-01-20T00:00:50.451Z,924.43
2019-01-20T00:02:22.267Z,924.46
2019-01-20T00:03:54.083Z,924.45
2019-01-20T00:05:25.900Z,924.44
2019-01-20T00:06:57.819Z,924.41
2019-01-20T00:08:29.532Z,924.36
2019-01-20T00:10:01.406Z,924.32
2019-01-20T00:11:33.226Z,924.32
2019-01-20T00:13:05.091Z,924.32
2019-01-20T00:14:36.854Z,924.35
2019-01-20T00:16:08.670Z,924.37
2019-01-20T00:17:40.488Z,924.39
2019-01-20T00:19:12.355Z,924.43
2019-01-20T00:20:44.120Z,924.50
2019-01-20T00:22:15.939Z,924.59
2019-01-20T00:23:47.752Z,924.62
2019-01-20T00:25:19.668Z,924.72
2019-01-20T00:26:51.384Z,924.76
2019-01-20T00:28:23.201Z,924.84
2019-01-20T00:29:55.025Z,924.85
2019-01-20T00:31:26.833Z,924.91
2019-01-20T00:32:58.650Z,924.94
2019-01-20T00:34:30.466Z,924.92
2019-01-20T00:36:02.282Z,924.93
2019-01-20T00:37:34.099Z,925.00
2019-01-20T00:39:05.914Z,925.08
2019-01-20T00:40:37.732Z,925.12
2019-01-20T00:42:09.547Z,925.16
2019-01-20T00:43:42.064Z,925.13
2019-01-20T00:45:13.179Z,925.15
2019-01-20T00:46:44.996Z,925.18
2019-01-20T00:48:16.813Z,925.17
2019-01-20T00:49:48.631Z,925.20
2019-01-20T00:51:20.449Z,925.21
2019-01-20T00:52:52.262Z,925.24
2019-01-20T00:54:27.110Z,925.24
2019-01-20T00:55:55.894Z,925.23
2019-01-20T00:57:27.712Z,925.16
2019-01-20T00:58:59.527Z,925.16
2019-01-20T01:00:31.346Z,925.15
2019-01-20T01:02:03.262Z,925.22
2019-01-20T01:03:34.976Z,925.27
2019-01-20T01:05:06.793Z,925.36
2019-01-20T01:06:38.609Z,925.51
2019-01-20T01:08:10.498Z,925.53
2019-01-20T01:09:42.244Z,925.63
2019-01-20T01:11:14.058Z,925.58
2019-01-20T01:12:45.877Z,925.58
2019-01-20T01:14:17.893Z,925.61
2019-01-20T01:15:49.507Z,925.48
2019-01-20T01:17:21.324Z,925.54
2019-01-20T01:18:53.140Z,925.53
2019-01-20T01:20:25.057Z,925.54
2019-01-20T01:21:56.773Z,925.64
2019-01-20T01:23:28.587Z,925.71
2019-01-20T01:25:00.404Z,925.73
2019-01-20T01:26:32.219Z,925.78
2019-01-20T01:28:04.035Z,925.71
2019-01-20T01:29:35.851Z,925.79
2019-01-20T01:31:07.667Z,925.85
2019-01-20T01:32:39.482Z,925.91
2019-01-20T01:34:11.298Z,926.03
2019-01-20T01:35:43.113Z,926.11
2019-01-20T01:37:14.929Z,926.12
2019-01-20T01:38:46.845Z,926.12
2019-01-20T01:40:18.561Z,926.18
2019-01-20T01:41:50.376Z,926.19
2019-01-20T01:43:22.192Z,926.20
2019-01-20T01:44:54.007Z,926.14
2019-01-20T01:46:25.823Z,926.04
2019-01-20T01:47:57.648Z,925.89
2019-01-20T01:49:29.455Z,925.82
2019-01-20T01:51:01.270Z,925.86
2019-01-20T01:52:33.087Z,925.83
2019-01-20T01:54:04.902Z,925.83
2019-01-20T01:55:36.718Z,925.80
2019-01-20T01:57:08.634Z,925.78
2019-01-20T01:58:40.351Z,925.77
2019-01-20T02:00:12.165Z,925.67
2019-01-20T02:01:43.979Z,925.60
2019-01-20T02:03:15.739Z,925.54
2019-01-20T02:04:47.555Z,925.59
2019-01-20T02:06:19.370Z,925.54
2019-01-20T02:07:51.185Z,925.57
2019-01-20T02:09:23.055Z,925.65
2019-01-20T02:10:54.871Z,925.71
2019-01-20T02:12:26.685Z,925.75
2019-01-20T02:13:58.501Z,925.82
2019-01-20T02:15:30.465Z,925.87
2019-01-20T02:17:02.130Z,926.05
2019-01-20T02:18:33.945Z,926.12
2019-01-20T02:20:05.760Z,926.14
2019-01-20T02:21:37.574Z,926.17
2019-01-20T02:23:09.390Z,926.19
2019-01-20T02:24:41.207Z,926.24
2019-01-20T02:26:13.018Z,926.26
2019-01-20T02:27:45.154Z,926.27
2019-01-20T02:29:16.648Z,926.27
2019-01-20T02:30:48.462Z,926.25
2019-01-20T02:32:20.277Z,926.19
2019-01-20T02:33:52.241Z,926.24
2019-01-20T02:35:23.908Z,926.24
2019-01-20T02:36:55.726Z,926.21
2019-01-20T02:38:27.536Z,926.34
2019-01-20T02:39:59.359Z,926.30
2019-01-20T02:41:31.168Z,926.32
2019-01-20T02:43:02.986Z,926.24
2019-01-20T02:44:34.800Z,926.22
2019-01-20T02:46:06.613Z,926.16
2019-01-20T02:47:38.429Z,926.11
2019-01-20T02:49:10.242Z,926.07
2019-01-20T02:50:42.058Z,926.02
2019-01-20T02:52:14.024Z,926.08
2019-01-20T02:53:45.688Z,926.04
2019-01-20T02:55:17.504Z,925.91
2019-01-20T02:56:49.319Z,925.94
2019-01-20T02:58:21.538Z,925.85
2019-01-20T02:59:52.950Z,925.85
2019-01-20T03:01:24.764Z,925.81
2019-01-20T03:02:56.582Z,925.93
2019-01-20T03:04:28.401Z,926.00
2019-01-20T03:06:00.210Z,925.95
2019-01-20T03:07:32.025Z,925.80
2019-01-20T03:09:03.840Z,925.66
2019-01-20T03:10:35.756Z,925.57
2019-01-20T03:12:07.473Z,925.53
2019-01-20T03:13:39.286Z,925.58
2019-01-20T03:15:11.170Z,925.58
2019-01-20T03:16:42.924Z,925.50
2019-01-20T03:18:14.732Z,925.42
2019-01-20T03:19:46.551Z,925.38
2019-01-20T03:21:18.370Z,925.35
2019-01-20T03:22:50.181Z,925.48
2019-01-20T03:24:21.992Z,925.57
2019-01-20T03:25:53.807Z,925.63
2019-01-20T03:27:25.621Z,925.70
2019-01-20T03:28:57.837Z,925.71
2019-01-20T03:30:29.262Z,925.70
2019-01-20T03:32:01.068Z,925.61
2019-01-20T03:33:32.883Z,925.64
2019-01-20T03:35:04.697Z,925.57
2019-01-20T03:36:36.519Z,925.57
2019-01-20T03:38:08.335Z,925.54
2019-01-20T03:39:40.144Z,925.45
2019-01-20T03:41:11.959Z,925.43
2019-01-20T03:42:43.774Z,925.45
2019-01-20T03:44:21.857Z,925.44
2019-01-20T03:56:29.246Z,925.45
2019-01-20T03:57:41.871Z,925.45
2019-01-20T03:59:13.663Z,925.49
2019-01-20T04:00:45.501Z,925.46
2019-01-20T04:02:17.317Z,925.46
2019-01-20T04:03:49.588Z,925.47
2019-01-20T04:05:20.948Z,925.44
2019-01-20T04:06:52.763Z,925.41
2019-01-20T04:08:24.583Z,925.34
2019-01-20T04:09:56.393Z,925.29
2019-01-20T04:11:28.210Z,925.23
2019-01-20T04:13:00.024Z,925.17
2019-01-20T04:14:31.838Z,925.24
2019-01-20T04:16:03.653Z,925.29
2019-01-20T04:17:35.467Z,925.33
2019-01-20T04:19:07.282Z,925.35
2019-01-20T04:20:39.099Z,925.27
2019-01-20T04:22:11.018Z,925.19
2019-01-20T04:23:42.728Z,925.10
2019-01-20T04:25:14.544Z,925.06
2019-01-20T04:26:46.358Z,925.04
2019-01-20T04:28:18.173Z,925.06
2019-01-20T04:29:49.989Z,925.05
2019-01-20T04:31:21.805Z,925.01
2019-01-20T04:32:53.618Z,925.01
2019-01-20T04:34:25.735Z,925.02
2019-01-20T04:35:57.253Z,925.03
2019-01-20T04:37:29.063Z,925.09
2019-01-20T04:39:00.877Z,925.15
2019-01-20T04:40:32.999Z,925.16
2019-01-20T04:42:04.509Z,925.16
2019-01-20T04:43:36.331Z,925.10
2019-01-20T04:45:08.138Z,925.01
2019-01-20T04:46:40.107Z,924.95
2019-01-20T04:48:11.768Z,924.87
2019-01-20T04:49:43.583Z,924.82
2019-01-20T04:51:15.398Z,924.77
2019-01-20T04:52:47.212Z,924.77
2019-01-20T04:54:19.040Z,924.76
2019-01-20T04:57:22.657Z,924.80
2019-01-20T04:58:54.572Z,924.78
2019-01-20T05:00:26.290Z,924.80
2019-01-20T05:01:58.102Z,924.72
2019-01-20T05:03:29.917Z,924.73
2019-01-20T05:05:01.750Z,924.75
2019-01-20T05:06:33.561Z,924.74
2019-01-20T05:08:05.380Z,924.73
2019-01-20T05:09:37.191Z,924.77
2019-01-20T05:11:09.006Z,924.77
2019-01-20T05:12:40.821Z,924.74
2019-01-20T05:14:12.636Z,924.70
2019-01-20T05:15:44.451Z,924.64
2019-01-20T05:17:16.416Z,924.54
2019-01-20T05:18:48.081Z,924.52
2019-01-20T05:20:19.896Z,924.53
2019-01-20T05:21:51.711Z,924.47
2019-01-20T05:23:23.526Z,924.43
2019-01-20T05:24:55.342Z,924.46
2019-01-20T05:26:27.156Z,924.44
2019-01-20T05:27:58.974Z,924.49
2019-01-20T05:29:30.786Z,924.43
2019-01-20T05:31:02.607Z,924.44
2019-01-20T05:32:34.415Z,924.36
2019-01-20T05:34:06.231Z,924.35
2019-01-20T05:35:38.483Z,924.31
2019-01-20T05:37:09.846Z,924.23
2019-01-20T05:38:41.661Z,924.19
2019-01-20T05:40:13.477Z,924.22
2019-01-20T05:41:45.296Z,924.20
2019-01-20T05:43:17.106Z,924.25
2019-01-20T05:44:48.921Z,924.29
2019-01-20T05:46:20.735Z,924.38
2019-01-20T05:47:52.550Z,924.40
2019-01-20T05:49:24.366Z,924.41
2019-01-20T05:50:56.180Z,924.42
2019-01-20T05:52:27.994Z,924.47
2019-01-20T05:53:59.910Z,924.45
2019-01-20T05:55:31.625Z,924.40
2019-01-20T05:57:03.438Z,924.42
2019-01-20T05:58:35.252Z,924.39
2019-01-20T06:00:07.067Z,924.30
2019-01-20T06:01:38.884Z,924.28
2019-01-20T06:03:10.697Z,924.21
2019-01-20T06:04:42.514Z,924.27
2019-01-20T06:06:14.628Z,924.28
2019-01-20T06:07:46.140Z,924.28
2019-01-20T06:09:17.956Z,924.26
2019-01-20T06:10:49.771Z,924.27
2019-01-20T06:12:21.887Z,924.26
2019-01-20T06:13:53.402Z,924.28
2019-01-20T06:15:25.216Z,924.28
2019-01-20T06:16:57.030Z,924.21
2019-01-20T06:18:28.844Z,924.21
2019-01-20T06:20:00.659Z,924.24
2019-01-20T06:21:32.473Z,924.23
2019-01-20T06:23:04.288Z,924.21
2019-01-20T06:24:36.103Z,924.23
2019-01-20T06:26:07.918Z,924.29
2019-01-20T06:27:39.733Z,924.31
2019-01-20T06:29:11.548Z,924.33
2019-01-20T06:30:43.663Z,924.30
2019-01-20T06:32:15.178Z,924.27
2019-01-20T06:33:46.995Z,924.26
2019-01-20T06:35:18.808Z,924.25
2019-01-20T06:36:50.923Z,924.19
2019-01-20T06:38:22.436Z,924.20
2019-01-20T06:39:54.264Z,924.18
2019-01-20T06:41:26.066Z,924.15
2019-01-20T06:43:02.143Z,924.20
2019-01-20T06:44:29.700Z,924.23
2019-01-20T06:46:01.511Z,924.29
2019-01-20T06:47:33.324Z,924.26
2019-01-20T06:49:05.289Z,924.24
2019-01-20T06:50:36.954Z,924.25
2019-01-20T06:52:08.768Z,924.30
2019-01-20T06:53:40.586Z,924.34
2019-01-20T06:55:12.398Z,924.34
2019-01-20T06:56:44.216Z,924.30
2019-01-20T06:58:16.027Z,924.32
2019-01-20T06:59:47.843Z,924.31
2019-01-20T07:01:19.657Z,924.32
2019-01-20T07:02:51.472Z,924.31
2019-01-20T07:04:23.289Z,924.27
2019-01-20T07:05:55.101Z,924.27
2019-01-20T07:07:27.367Z,924.30
2019-01-20T07:08:58.743Z,924.33
2019-01-20T07:10:30.546Z,924.33
2019-01-20T07:12:02.361Z,924.26
2019-01-20T07:13:34.179Z,924.25
2019-01-20T07:15:05.991Z,924.22
2019-01-20T07:16:37.819Z,924.26
2019-01-20T07:18:09.622Z,924.24
2019-01-20T07:19:41.437Z,924.25
2019-01-20T07:21:13.250Z,924.30
2019-01-20T07:22:45.066Z,924.30
2019-01-20T07:24:16.894Z,924.32
2019-01-20T07:25:49.047Z,924.35
2019-01-20T07:27:20.509Z,924.36
2019-01-20T07:28:52.325Z,924.34
2019-01-20T07:30:24.140Z,924.33
2019-01-20T07:31:55.955Z,924.32
2019-01-20T07:33:27.770Z,924.36
2019-01-20T07:34:59.586Z,924.38
2019-01-20T07:36:31.400Z,924.38
2019-01-20T07:38:03.516Z,924.36
2019-01-20T07:39:35.031Z,924.37
2019-01-20T07:41:06.846Z,924.38
2019-01-20T07:42:38.661Z,924.36
2019-01-20T07:44:10.577Z,924.32
2019-01-20T07:45:42.295Z,924.31
2019-01-20T07:47:14.107Z,924.24
2019-01-20T07:48:45.922Z,924.18
2019-01-20T07:50:17.739Z,924.23
2019-01-20T07:51:49.552Z,924.28
2019-01-20T07:53:21.368Z,924.33
2019-01-20T07:54:53.182Z,924.39
2019-01-20T07:56:24.999Z,924.42
2019-01-20T07:57:56.813Z,924.40
2019-01-20T07:59:28.628Z,924.38
2019-01-20T08:01:00.443Z,924.36
2019-01-20T08:02:32.408Z,924.34
2019-01-20T08:04:04.073Z,924.30
2019-01-20T08:05:35.889Z,924.31
2019-01-20T08:07:07.702Z,924.32
2019-01-20T08:08:39.817Z,924.37
2019-01-20T08:10:11.332Z,924.38
2019-01-20T08:11:43.151Z,924.39
2019-01-20T08:13:14.961Z,924.45
2019-01-20T08:14:46.927Z,924.46
2019-01-20T08:16:18.591Z,924.49
2019-01-20T08:17:50.409Z,924.50
2019-01-20T08:19:22.222Z,924.52
2019-01-20T08:20:54.187Z,924.58
2019-01-20T08:22:25.852Z,924.55
2019-01-20T08:23:57.671Z,924.58
2019-01-20T08:25:29.483Z,924.60
2019-01-20T08:27:01.298Z,924.65
2019-01-20T08:28:33.113Z,924.64
2019-01-20T08:30:04.929Z,924.71
2019-01-20T08:31:36.744Z,924.73
2019-01-20T08:33:08.559Z,924.74
2019-01-20T08:34:40.375Z,924.81
2019-01-20T08:36:12.193Z,924.82
2019-01-20T08:37:44.007Z,924.84
2019-01-20T08:39:15.971Z,924.86
2019-01-20T08:40:47.637Z,924.88
2019-01-20T08:42:19.451Z,924.91
2019-01-20T08:43:51.269Z,924.90
2019-01-20T08:45:23.082Z,924.95
2019-01-20T08:46:54.901Z,924.97
2019-01-20T08:48:26.715Z,925.00
2019-01-20T08:49:58.528Z,925.05
2019-01-20T08:51:30.344Z,925.04
2019-01-20T08:53:02.160Z,925.02
2019-01-20T08:54:33.973Z,925.03
2019-01-20T08:56:05.790Z,925.14
2019-01-20T08:57:37.754Z,925.20
2019-01-20T08:59:09.419Z,925.26
2019-01-20T09:00:41.237Z,925.28
2019-01-20T09:02:13.050Z,925.27
2019-01-20T09:03:45.068Z,925.31
2019-01-20T09:05:16.681Z,925.28
2019-01-20T09:06:48.497Z,925.34
2019-01-20T09:08:20.312Z,925.35
2019-01-20T09:09:52.426Z,925.40
2019-01-20T09:11:23.942Z,925.42
2019-01-20T09:12:55.764Z,925.46
2019-01-20T09:14:27.573Z,925.47
2019-01-20T09:17:31.354Z,925.49
2019-01-20T09:19:03.020Z,925.51
2019-01-20T09:20:34.837Z,925.56
2019-01-20T09:22:06.957Z,925.60
2019-01-20T09:23:38.771Z,925.60
2019-01-20T09:25:10.283Z,925.58
2019-01-20T09:26:42.099Z,925.60
2019-01-20T09:28:13.917Z,925.54
2019-01-20T09:29:45.732Z,925.56
2019-01-20T09:31:17.749Z,925.57
2019-01-20T09:32:49.363Z,925.59
2019-01-20T09:34:21.180Z,925.68
2019-01-20T09:37:25.015Z,925.66
2019-01-20T09:38:56.831Z,925.64
2019-01-20T09:40:28.445Z,925.60
2019-01-20T09:42:00.264Z,925.60
2019-01-20T09:43:32.078Z,925.59
2019-01-20T09:45:03.895Z,925.62
2019-01-20T09:46:35.712Z,925.59
2019-01-20T09:48:07.529Z,925.59
2019-01-20T09:49:39.346Z,925.68
2019-01-20T09:51:11.163Z,925.67
2019-01-20T10:02:41.175Z,925.79
2019-01-20T10:04:13.008Z,925.77
2019-01-20T10:05:44.828Z,925.83
2019-01-20T10:08:48.492Z,925.86
2019-01-20T10:10:20.883Z,925.89
2019-01-20T10:11:52.132Z,925.88
2019-01-20T10:13:23.949Z,925.88
2019-01-20T10:14:55.919Z,925.96
2019-01-20T10:16:27.595Z,926.02
2019-01-20T10:17:59.408Z,926.09
2019-01-20T10:19:31.230Z,926.07
2019-01-20T10:21:03.050Z,926.09
2019-01-20T10:22:35.078Z,926.05
2019-01-20T10:24:06.693Z,926.09
2019-01-20T10:25:38.522Z,926.06
2019-01-20T10:27:10.336Z,926.04
2019-01-20T10:28:42.158Z,926.04
2019-01-20T10:30:13.983Z,926.06
2019-01-20T10:31:45.802Z,926.08
2019-01-20T10:33:17.669Z,926.18
2019-01-20T10:36:21.215Z,926.13
2019-01-20T10:37:53.035Z,926.11
2019-01-20T10:39:25.060Z,926.10
2019-01-20T10:40:56.680Z,926.09
2019-01-20T10:44:02.410Z,926.10
2019-01-20T10:45:32.148Z,926.10
2019-01-20T10:47:03.971Z,926.09
2019-01-20T10:48:35.794Z,926.12
2019-01-20T10:50:07.617Z,926.17
2019-01-20T10:51:39.541Z,926.16
2019-01-20T10:53:11.264Z,926.16
2019-01-20T10:54:43.089Z,926.22
2019-01-20T10:57:46.737Z,926.22
2019-01-20T10:59:18.562Z,926.17
2019-01-20T11:00:50.588Z,926.18
2019-01-20T11:02:22.517Z,926.18
2019-01-20T11:03:54.034Z,926.14
2019-01-20T11:05:30.393Z,926.18
2019-01-20T11:06:57.684Z,926.21
2019-01-20T11:08:29.509Z,926.17
2019-01-20T11:10:01.435Z,926.23
2019-01-20T11:11:33.160Z,926.23
2019-01-20T11:13:04.990Z,926.24
2019-01-20T11:14:36.809Z,926.22
2019-01-20T11:16:08.938Z,926.20
2019-01-20T11:17:40.458Z,926.17
2019-01-20T11:19:12.284Z,926.16
2019-01-20T11:20:44.109Z,926.22
2019-01-20T11:22:16.034Z,926.25
2019-01-20T11:23:47.760Z,926.28
2019-01-20T11:25:19.585Z,926.33
2019-01-20T11:26:51.619Z,926.35
2019-01-20T11:28:24.425Z,926.30
2019-01-20T11:29:55.064Z,926.31
2019-01-20T11:31:26.895Z,926.29
2019-01-20T11:32:58.718Z,926.27
2019-01-20T11:34:30.575Z,926.25
2019-01-20T11:36:02.382Z,926.21
2019-01-20T11:37:34.199Z,926.31
2019-01-20T11:39:06.026Z,926.27
2019-01-20T11:40:37.856Z,926.32
2019-01-20T11:42:09.681Z,926.34
2019-01-20T11:43:41.508Z,926.30
2019-01-20T11:45:13.336Z,926.32
2019-01-20T11:46:46.115Z,926.29
2019-01-20T11:48:16.992Z,926.28
2019-01-20T11:51:20.648Z,926.30
2019-01-20T11:52:52.487Z,926.34
2019-01-20T11:54:24.310Z,926.24
2019-01-20T11:55:56.135Z,926.34
2019-01-20T11:57:28.058Z,926.40
2019-01-20T11:58:59.794Z,926.37
2019-01-20T12:00:31.620Z,926.38
2019-01-20T12:02:03.448Z,926.39
2019-01-20T12:03:35.277Z,926.53
2019-01-20T12:05:07.207Z,926.57
2019-01-20T12:08:10.762Z,926.42
2019-01-20T12:09:42.592Z,926.39
2019-01-20T12:11:14.421Z,926.41
2019-01-20T12:12:46.250Z,926.40
2019-01-20T12:14:23.959Z,926.45
2019-01-20T12:15:49.910Z,926.39
2019-01-20T12:17:21.740Z,926.37
2019-01-20T12:18:53.570Z,926.45
2019-01-20T12:20:25.400Z,926.53
2019-01-20T12:21:57.230Z,926.40
2019-01-20T12:23:29.161Z,926.41
2019-01-20T12:25:00.891Z,926.39
2019-01-20T12:26:32.721Z,926.39
2019-01-20T12:28:04.551Z,926.42
2019-01-20T12:29:36.382Z,926.33
2019-01-20T12:31:08.210Z,926.35
2019-01-20T12:32:40.047Z,926.34
2019-01-20T12:34:11.872Z,926.31
2019-01-20T12:35:43.704Z,926.31
2019-01-20T12:37:15.532Z,926.35
2019-01-20T12:38:47.363Z,926.40
2019-01-20T12:40:19.193Z,926.41
2019-01-20T12:43:23.160Z,926.48
2019-01-20T12:44:54.685Z,926.54
2019-01-20T12:46:26.515Z,926.52
2019-01-20T12:47:58.346Z,926.57
2019-01-20T12:49:30.178Z,926.54
2019-01-20T12:51:02.009Z,926.58
2019-01-20T12:52:33.840Z,926.62
2019-01-20T12:54:05.671Z,926.69
2019-01-20T12:55:37.602Z,926.82
2019-01-20T12:57:09.334Z,926.72
2019-01-20T12:58:41.167Z,926.63
2019-01-20T13:00:13.001Z,926.66
2019-01-20T13:01:44.932Z,926.62
2019-01-20T13:03:17.201Z,926.63
2019-01-20T13:04:48.496Z,926.63
2019-01-20T13:06:20.359Z,926.69
2019-01-20T13:07:52.370Z,926.65
2019-01-20T13:09:23.997Z,926.62
2019-01-20T13:12:27.659Z,926.43
2019-01-20T13:13:59.489Z,926.62
2019-01-20T13:15:31.323Z,926.63
2019-01-20T13:17:03.157Z,926.61
2019-01-20T13:18:34.983Z,926.57
2019-01-20T13:20:06.939Z,926.60
2019-01-20T13:21:39.194Z,926.60
2019-01-20T13:23:10.480Z,926.65
2019-01-20T13:24:42.313Z,926.51
2019-01-20T13:26:14.144Z,926.55
2019-01-20T13:27:45.977Z,926.80
2019-01-20T13:29:17.809Z,926.78
2019-01-20T13:30:49.846Z,926.76
2019-01-20T13:32:21.475Z,926.74
2019-01-20T13:33:53.307Z,926.89
2019-01-20T13:35:25.140Z,926.75
2019-01-20T13:36:56.977Z,926.74
2019-01-20T13:38:29.106Z,926.91
2019-01-20T13:40:00.944Z,926.67
2019-01-20T13:41:32.467Z,926.64
2019-01-20T13:43:04.302Z,926.75
2019-01-20T13:44:36.132Z,926.71
2019-01-20T13:46:07.962Z,926.58
2019-01-20T13:47:39.793Z,926.53
2019-01-20T13:49:11.626Z,926.51
2019-01-20T13:50:43.459Z,926.43
2019-01-20T13:52:15.292Z,926.47
2019-01-20T13:53:47.125Z,926.48
2019-01-20T13:55:18.959Z,926.44
2019-01-20T13:56:51.042Z,926.52
2019-01-20T13:58:22.627Z,926.51
2019-01-20T13:59:54.460Z,926.59
2019-01-20T14:01:26.294Z,926.52
2019-01-20T14:02:58.129Z,926.42
2019-01-20T14:04:29.962Z,926.39
2019-01-20T14:06:01.796Z,926.55
2019-01-20T14:07:33.630Z,926.60
2019-01-20T14:09:05.464Z,926.75
2019-01-20T14:10:37.298Z,926.73
2019-01-20T14:12:09.131Z,926.77
2019-01-20T14:13:40.968Z,926.63
2019-01-20T14:15:13.103Z,926.36
2019-01-20T14:16:44.939Z,926.13
2019-01-20T14:18:16.470Z,926.24
2019-01-20T14:19:48.302Z,926.25
2019-01-20T14:21:20.137Z,926.26
2019-01-20T14:22:51.999Z,926.30
2019-01-20T14:24:23.808Z,926.34
2019-01-20T14:25:55.643Z,926.46
2019-01-20T14:27:27.479Z,926.63
2019-01-20T14:28:59.316Z,926.64
2019-01-20T14:30:31.152Z,926.51
2019-01-20T14:32:02.990Z,926.15
2019-01-20T14:33:34.926Z,926.47
2019-01-20T14:35:06.662Z,926.62
2019-01-20T14:36:38.499Z,926.79
2019-01-20T14:38:10.337Z,926.83
2019-01-20T14:39:42.172Z,926.54
2019-01-20T14:41:14.010Z,926.65
2019-01-20T14:42:45.850Z,926.64
2019-01-20T14:44:17.687Z,926.71
2019-01-20T14:45:49.730Z,926.77
2019-01-20T14:47:21.368Z,926.74
2019-01-20T14:48:53.207Z,926.44
2019-01-20T14:50:25.047Z,926.32
2019-01-20T14:51:57.287Z,926.23
2019-01-20T14:53:28.722Z,926.35
2019-01-20T14:55:00.558Z,926.49
2019-01-20T14:56:32.394Z,926.39
2019-01-20T14:58:04.380Z,926.48
2019-01-20T14:59:36.065Z,926.53
2019-01-20T15:01:07.905Z,926.56
2019-01-20T15:02:39.738Z,926.20
2019-01-20T15:04:11.575Z,926.09
2019-01-20T15:05:43.412Z,925.94
2019-01-20T15:08:47.076Z,926.21
2019-01-20T15:11:50.839Z,926.40
2019-01-20T15:13:22.773Z,926.22
2019-01-20T15:16:26.232Z,926.54
2019-01-20T15:17:58.062Z,926.48
2019-01-20T15:19:29.896Z,926.06
2019-01-20T15:21:01.727Z,926.17
2019-01-20T15:22:33.560Z,926.03
2019-01-20T15:24:06.044Z,925.94
2019-01-20T15:27:09.160Z,925.99
2019-01-20T15:28:41.191Z,926.08
2019-01-20T15:31:44.892Z,925.96
2019-01-20T15:34:48.215Z,926.27
2019-01-20T15:36:20.331Z,926.15
2019-01-20T15:39:23.747Z,926.50
2019-01-20T15:40:55.506Z,926.66
2019-01-20T15:42:27.334Z,926.49
2019-01-20T15:43:59.369Z,926.23
2019-01-20T15:45:30.994Z,926.00
2019-01-20T15:47:03.129Z,925.89
2019-01-20T15:48:35.163Z,925.90
2019-01-20T15:50:06.483Z,925.76
2019-01-20T15:51:38.716Z,925.65
2019-01-20T15:53:10.145Z,925.61
2019-01-20T15:54:41.967Z,925.50
2019-01-20T15:56:13.798Z,925.46
2019-01-20T15:57:45.732Z,925.46
2019-01-20T15:59:17.445Z,925.35
2019-01-20T16:00:49.272Z,925.38
2019-01-20T16:02:21.099Z,925.41
2019-01-20T16:03:53.125Z,925.41
2019-01-20T16:06:56.570Z,925.48
2019-01-20T16:08:28.697Z,925.48
2019-01-20T16:10:00.323Z,925.59
2019-01-20T16:11:32.041Z,925.60
2019-01-20T16:13:03.866Z,925.45
2019-01-20T16:14:35.690Z,925.52
2019-01-20T16:16:07.513Z,925.55
2019-01-20T16:17:39.338Z,925.88
2019-01-20T16:19:11.163Z,926.26
2019-01-20T16:22:14.809Z,926.16
2019-01-20T16:23:46.840Z,926.03
2019-01-20T16:25:18.455Z,925.81
2019-01-20T16:26:50.337Z,925.70
2019-01-20T16:28:22.659Z,925.78
2019-01-20T16:29:53.928Z,925.84
2019-01-20T16:31:25.768Z,925.83
2019-01-20T16:32:57.575Z,925.73
2019-01-20T16:34:29.399Z,925.52
2019-01-20T16:36:01.223Z,925.38
2019-01-20T16:37:33.297Z,925.35
2019-01-20T16:39:04.871Z,925.36
2019-01-20T16:40:36.694Z,925.42
2019-01-20T16:42:08.521Z,925.45
2019-01-20T16:43:40.342Z,925.66
2019-01-20T16:45:12.174Z,926.07
2019-01-20T16:48:15.923Z,925.99
2019-01-20T16:49:47.638Z,925.89
2019-01-20T16:51:19.463Z,925.83
2019-01-20T16:52:54.644Z,925.90
2019-01-20T16:54:23.112Z,925.80
2019-01-20T16:55:55.241Z,925.90
2019-01-20T16:57:26.968Z,926.00
2019-01-20T16:58:58.586Z,926.22
2019-01-20T17:00:30.410Z,925.80
2019-01-20T17:02:02.234Z,925.76
2019-01-20T17:03:34.058Z,925.83
2019-01-20T17:05:05.885Z,925.87
2019-01-20T17:06:37.807Z,925.71
2019-01-20T17:08:09.528Z,925.57
2019-01-20T17:09:41.352Z,925.44
2019-01-20T17:11:13.174Z,925.49
2019-01-20T17:12:44.997Z,925.38
2019-01-20T17:14:16.883Z,925.24
2019-01-20T17:15:48.845Z,925.17
2019-01-20T17:17:20.549Z,925.28
2019-01-20T17:18:52.441Z,925.31
2019-01-20T17:20:24.109Z,925.57
2019-01-20T17:21:56.233Z,925.63
2019-01-20T17:23:27.750Z,925.68
2019-01-20T17:24:59.722Z,925.70
2019-01-20T17:26:31.393Z,925.81
2019-01-20T17:28:03.233Z,925.87
2019-01-20T17:31:06.908Z,925.77
2019-01-20T17:34:11.034Z,925.59
2019-01-20T17:35:42.322Z,925.48
2019-01-20T17:37:14.163Z,925.52
2019-01-20T17:38:45.959Z,925.42
2019-01-20T17:40:17.780Z,925.42
2019-01-20T17:43:21.643Z,925.53
2019-01-20T17:44:53.241Z,925.45
2019-01-20T17:47:56.887Z,925.43
2019-01-20T17:51:00.521Z,925.50
2019-01-20T17:52:32.870Z,925.54
2019-01-20T17:54:04.157Z,925.70
2019-01-20T17:55:35.979Z,925.90
2019-01-20T17:57:07.850Z,926.05
2019-01-20T17:58:39.824Z,926.01
2019-01-20T18:00:11.444Z,926.07
2019-01-20T18:01:43.266Z,925.82
2019-01-20T18:03:15.189Z,925.93
2019-01-20T18:04:46.912Z,925.81
2019-01-20T18:06:18.735Z,925.79
2019-01-20T18:07:50.560Z,925.72
2019-01-20T18:09:22.918Z,925.48
2019-01-20T18:12:26.038Z,925.49
2019-01-20T18:13:57.854Z,925.62
2019-01-20T18:15:29.677Z,925.62
2019-01-20T18:17:01.536Z,925.56
2019-01-20T18:18:33.333Z,925.47
2019-01-20T18:20:05.146Z,925.53
2019-01-20T18:21:37.228Z,925.51
2019-01-20T18:23:08.790Z,925.52
2019-01-20T18:24:40.815Z,925.41
2019-01-20T18:26:12.969Z,925.43
2019-01-20T18:27:44.256Z,925.35
2019-01-20T18:29:16.078Z,925.23
2019-01-20T18:32:19.720Z,925.05
2019-01-20T18:33:51.547Z,925.24
2019-01-20T18:36:55.387Z,925.35
2019-01-20T18:38:27.006Z,925.15
2019-01-20T18:39:58.930Z,925.17
2019-01-20T18:43:02.471Z,925.22
2019-01-20T18:44:34.299Z,925.20
2019-01-20T18:46:06.118Z,925.26
2019-01-20T18:47:37.937Z,925.11
2019-01-20T18:49:09.758Z,925.11
2019-01-20T18:50:41.639Z,925.04
2019-01-20T18:52:13.402Z,924.93
2019-01-20T18:53:45.224Z,924.80
2019-01-20T18:55:17.061Z,924.77
2019-01-20T18:56:48.872Z,924.65
2019-01-20T18:59:52.815Z,924.78
2019-01-20T19:02:56.154Z,925.00
2019-01-20T19:04:27.975Z,925.10
2019-01-20T19:05:59.806Z,925.24
2019-01-20T19:07:31.618Z,925.25
2019-01-20T19:09:03.438Z,925.13
2019-01-20T19:10:35.259Z,925.15
2019-01-20T19:12:07.080Z,925.08
2019-01-20T19:13:38.900Z,925.07
2019-01-20T19:15:10.719Z,925.01
2019-01-20T19:16:42.541Z,925.00
2019-01-20T19:18:19.237Z,924.99
2019-01-20T19:19:46.183Z,925.01
2019-01-20T19:21:18.305Z,924.98
2019-01-20T19:22:49.819Z,924.98
2019-01-20T19:24:21.676Z,924.94
2019-01-20T19:25:53.459Z,925.14
2019-01-20T19:27:25.277Z,925.18
2019-01-20T19:29:02.918Z,925.19
2019-01-20T19:30:29.020Z,925.24
2019-01-20T19:32:00.736Z,925.23
2019-01-20T19:33:32.554Z,925.34
2019-01-20T19:35:04.677Z,925.43
2019-01-20T19:38:08.666Z,925.46
2019-01-20T19:39:39.827Z,925.40
2019-01-20T19:41:11.645Z,925.37
2019-01-20T19:42:43.462Z,925.45
2019-01-20T19:44:15.280Z,925.52
2019-01-20T19:45:47.098Z,925.51
2019-01-20T19:47:18.916Z,925.52
2019-01-20T19:50:22.555Z,925.48
2019-01-20T19:51:54.370Z,925.47
2019-01-20T19:53:26.187Z,925.44
2019-01-20T19:54:58.005Z,925.25
2019-01-20T19:56:29.925Z,925.20
2019-01-20T19:58:01.641Z,925.18
2019-01-20T19:59:33.457Z,925.14
2019-01-20T20:01:05.278Z,925.20
2019-01-20T20:02:37.092Z,925.06
2019-01-20T20:04:08.910Z,925.00
2019-01-20T20:07:12.545Z,924.99
2019-01-20T20:08:44.462Z,925.05
2019-01-20T20:10:16.180Z,925.17
2019-01-20T20:11:48.200Z,925.15
2019-01-20T20:13:20.120Z,925.15
2019-01-20T20:16:24.055Z,925.19
2019-01-20T20:17:55.264Z,925.26
2019-01-20T20:19:27.081Z,925.35
2019-01-20T20:20:58.898Z,925.49